sensor_id;sensor_type;location;lat;lon;timestamp;pressure;altitude;pressure_sealevel;temperature;humidity
50166;BME280;36071;48.140;11.516;2022-09-17T00:02:20;95030.0;;;11.0;80.5
50166;BME280;36071;48.140;11.516;2022-09-17T00:07:20;95040.0;;;10.9;79.7
50166;BME280;36071;48.140;11.516;2022-09-17T00:12:20;95030.0;;;10.9;80.4
50166;BME280;36071;48.140;11.516;2022-09-17T00:17:20;95040.0;;;10.8;79.5
50166;BME280;36071;48.140;11.516;2022-09-17T00:22:20;95040.0;;;10.6;79.8
50166;BME280;36071;48.140;11.516;2022-09-17T00:27:20;95020.0;;;10.7;77.9
50166;BME280;36071;48.140;11.516;2022-09-17T00:32:20;95020.0;;;10.7;78.6
50166;BME280;36071;48.140;11.516;2022-09-17T00:37:20;95050.0;;;10.7;78.1
50166;BME280;36071;48.140;11.516;2022-09-17T00:42:20;95040.0;;;10.8;77.6
50166;BME280;36071;48.140;11.516;2022-09-17T00:47:23;95050.0;;;10.8;77.6
50166;BME280;36071;48.140;11.516;2022-09-17T00:52:23;95050.0;;;10.8;77.2
50166;BME280;36071;48.140;11.516;2022-09-17T00:57:20;95050.0;;;10.7;76.7
50166;BME280;36071;48.140;11.516;2022-09-17T01:02:20;95050.0;;;10.7;76.8
50166;BME280;36071;48.140;11.516;2022-09-17T01:07:26;95050.0;;;10.7;76.9
50166;BME280;36071;48.140;11.516;2022-09-17T01:12:24;95060.0;;;10.6;76.6
50166;BME280;36071;48.140;11.516;2022-09-17T01:17:22;95050.0;;;10.6;77.1
50166;BME280;36071;48.140;11.516;2022-09-17T01:27:44;95050.0;;;10.6;76.7
50166;BME280;36071;48.140;11.516;2022-09-17T01:32:21;95050.0;;;10.7;77.0
50166;BME280;36071;48.140;11.516;2022-09-17T01:37:21;95060.0;;;10.6;77.3
50166;BME280;36071;48.140;11.516;2022-09-17T01:42:22;95050.0;;;10.6;78.2
50166;BME280;36071;48.140;11.516;2022-09-17T01:47:21;95050.0;;;10.6;78.7
50166;BME280;36071;48.140;11.516;2022-09-17T01:52:20;95050.0;;;10.6;79.2
50166;BME280;36071;48.140;11.516;2022-09-17T01:57:22;95050.0;;;10.6;78.0
50166;BME280;36071;48.140;11.516;2022-09-17T02:02:21;95050.0;;;10.7;75.3
50166;BME280;36071;48.140;11.516;2022-09-17T02:07:20;95050.0;;;10.4;75.7
50166;BME280;36071;48.140;11.516;2022-09-17T02:12:22;95060.0;;;10.5;74.2
50166;BME280;36071;48.140;11.516;2022-09-17T02:17:21;95050.0;;;10.4;74.7
50166;BME280;36071;48.140;11.516;2022-09-17T02:22:22;95040.0;;;10.3;74.5
50166;BME280;36071;48.140;11.516;2022-09-17T02:27:21;95050.0;;;10.3;75.5
50166;BME280;36071;48.140;11.516;2022-09-17T02:32:20;95040.0;;;10.2;75.5
50166;BME280;36071;48.140;11.516;2022-09-17T02:37:22;95030.0;;;10.3;75.8
50166;BME280;36071;48.140;11.516;2022-09-17T02:42:21;95020.0;;;10.2;76.6
50166;BME280;36071;48.140;11.516;2022-09-17T02:47:24;95010.0;;;10.2;76.8
50166;BME280;36071;48.140;11.516;2022-09-17T02:52:22;95010.0;;;10.1;77.1
50166;BME280;36071;48.140;11.516;2022-09-17T03:12:20;94990.0;;;10.1;75.2
50166;BME280;36071;48.140;11.516;2022-09-17T03:17:20;94990.0;;;10.1;75.6
50166;BME280;36071;48.140;11.516;2022-09-17T03:22:20;95000.0;;;10.0;76.3
50166;BME280;36071;48.140;11.516;2022-09-17T03:27:20;95000.0;;;10.1;75.7
50166;BME280;36071;48.140;11.516;2022-09-17T03:32:20;95000.0;;;10.0;76.2
50166;BME280;36071;48.140;11.516;2022-09-17T03:37:20;94990.0;;;10.0;75.9
50166;BME280;36071;48.140;11.516;2022-09-17T03:42:20;95000.0;;;9.9;76.9
50166;BME280;36071;48.140;11.516;2022-09-17T03:47:20;95000.0;;;9.9;76.4
50166;BME280;36071;48.140;11.516;2022-09-17T03:52:20;95000.0;;;9.8;77.6
50166;BME280;36071;48.140;11.516;2022-09-17T03:57:20;94980.0;;;9.8;77.3
50166;BME280;36071;48.140;11.516;2022-09-17T04:02:20;94990.0;;;9.9;77.9
50166;BME280;36071;48.140;11.516;2022-09-17T04:07:20;94990.0;;;9.8;77.0
50166;BME280;36071;48.140;11.516;2022-09-17T04:17:20;95000.0;;;9.7;78.2
50166;BME280;36071;48.140;11.516;2022-09-17T04:22:20;95000.0;;;9.6;77.6
50166;BME280;36071;48.140;11.516;2022-09-17T04:27:20;94990.0;;;9.6;77.5
50166;BME280;36071;48.140;11.516;2022-09-17T04:32:20;94990.0;;;9.6;77.7
50166;BME280;36071;48.140;11.516;2022-09-17T04:37:20;94990.0;;;9.5;77.9
50166;BME280;36071;48.140;11.516;2022-09-17T04:42:20;95000.0;;;9.4;78.2
50166;BME280;36071;48.140;11.516;2022-09-17T04:47:20;95000.0;;;9.5;78.3
50166;BME280;36071;48.140;11.516;2022-09-17T04:52:20;95030.0;;;9.5;78.2
50166;BME280;36071;48.140;11.516;2022-09-17T04:57:20;95040.0;;;9.6;77.2
50166;BME280;36071;48.140;11.516;2022-09-17T05:02:20;95060.0;;;9.6;77.2
50166;BME280;36071;48.140;11.516;2022-09-17T05:07:20;95090.0;;;9.7;76.5
50166;BME280;36071;48.140;11.516;2022-09-17T05:12:20;95110.0;;;9.6;75.8
50166;BME280;36071;48.140;11.516;2022-09-17T05:17:20;95110.0;;;9.7;76.1
50166;BME280;36071;48.140;11.516;2022-09-17T05:22:20;95120.0;;;9.7;76.3
50166;BME280;36071;48.140;11.516;2022-09-17T05:27:20;95130.0;;;9.7;76.2
50166;BME280;36071;48.140;11.516;2022-09-17T05:32:20;95140.0;;;9.8;76.2
50166;BME280;36071;48.140;11.516;2022-09-17T05:37:20;95070.0;;;9.2;75.5
50166;BME280;36071;48.140;11.516;2022-09-17T05:42:20;95160.0;;;9.7;76.2
50166;BME280;36071;48.140;11.516;2022-09-17T05:47:20;95170.0;;;9.7;75.9
50166;BME280;36071;48.140;11.516;2022-09-17T05:52:20;95170.0;;;9.7;77.5
50166;BME280;36071;48.140;11.516;2022-09-17T05:57:20;95160.0;;;9.6;75.5
50166;BME280;36071;48.140;11.516;2022-09-17T06:02:20;95170.0;;;9.6;74.9
50166;BME280;36071;48.140;11.516;2022-09-17T06:07:20;95170.0;;;9.6;75.4
50166;BME280;36071;48.140;11.516;2022-09-17T06:12:20;95160.0;;;9.7;75.3
50166;BME280;36071;48.140;11.516;2022-09-17T06:27:20;95160.0;;;9.6;74.6
50166;BME280;36071;48.140;11.516;2022-09-17T06:32:20;95150.0;;;9.6;74.0
50166;BME280;36071;48.140;11.516;2022-09-17T06:37:20;95150.0;;;9.7;74.3
50166;BME280;36071;48.140;11.516;2022-09-17T06:42:20;95140.0;;;9.7;73.9
50166;BME280;36071;48.140;11.516;2022-09-17T06:47:22;95160.0;;;9.7;74.2
50166;BME280;36071;48.140;11.516;2022-09-17T06:52:20;95160.0;;;9.6;73.1
50166;BME280;36071;48.140;11.516;2022-09-17T06:57:20;95160.0;;;9.6;73.5
50166;BME280;36071;48.140;11.516;2022-09-17T07:02:20;95160.0;;;9.7;73.5
50166;BME280;36071;48.140;11.516;2022-09-17T07:07:23;95150.0;;;10.0;72.3
50166;BME280;36071;48.140;11.516;2022-09-17T07:12:20;95150.0;;;10.2;70.9
50166;BME280;36071;48.140;11.516;2022-09-17T07:17:20;95150.0;;;10.4;69.3
50166;BME280;36071;48.140;11.516;2022-09-17T07:22:20;95160.0;;;10.7;68.1
50166;BME280;36071;48.140;11.516;2022-09-17T07:27:20;95150.0;;;11.0;67.8
50166;BME280;36071;48.140;11.516;2022-09-17T07:32:20;95140.0;;;11.4;65.3
50166;BME280;36071;48.140;11.516;2022-09-17T07:37:20;95140.0;;;11.4;63.1
50166;BME280;36071;48.140;11.516;2022-09-17T07:42:20;95130.0;;;11.8;68.5
50166;BME280;36071;48.140;11.516;2022-09-17T07:47:20;95140.0;;;12.0;63.7
50166;BME280;36071;48.140;11.516;2022-09-17T07:52:20;95120.0;;;12.2;60.3
50166;BME280;36071;48.140;11.516;2022-09-17T07:57:20;95140.0;;;12.4;59.5
50166;BME280;36071;48.140;11.516;2022-09-17T08:02:20;95130.0;;;12.5;58.6
50166;BME280;36071;48.140;11.516;2022-09-17T08:07:20;95150.0;;;12.4;58.9
50166;BME280;36071;48.140;11.516;2022-09-17T08:12:20;95150.0;;;12.5;57.1
50166;BME280;36071;48.140;11.516;2022-09-17T08:17:20;95110.0;;;12.8;56.7
50166;BME280;36071;48.140;11.516;2022-09-17T08:22:20;95150.0;;;13.5;55.7
50166;BME280;36071;48.140;11.516;2022-09-17T08:27:20;95150.0;;;13.0;55.6
50166;BME280;36071;48.140;11.516;2022-09-17T08:32:20;95160.0;;;12.9;56.6
50166;BME280;36071;48.140;11.516;2022-09-17T08:37:20;95170.0;;;12.6;57.9
50166;BME280;36071;48.140;11.516;2022-09-17T08:42:21;95170.0;;;12.4;57.5
50166;BME280;36071;48.140;11.516;2022-09-17T08:47:21;95190.0;;;12.1;58.2
50166;BME280;36071;48.140;11.516;2022-09-17T08:52:26;95190.0;;;12.2;56.2
50166;BME280;36071;48.140;11.516;2022-09-17T08:57:21;95190.0;;;12.2;57.2
50166;BME280;36071;48.140;11.516;2022-09-17T09:02:22;95190.0;;;12.0;60.6
50166;BME280;36071;48.140;11.516;2022-09-17T09:07:20;95190.0;;;11.8;61.0
50166;BME280;36071;48.140;11.516;2022-09-17T09:12:21;95200.0;;;11.6;60.9
50166;BME280;36071;48.140;11.516;2022-09-17T09:17:20;95200.0;;;11.4;60.9
50166;BME280;36071;48.140;11.516;2022-09-17T09:22:25;95210.0;;;11.5;60.6
50166;BME280;36071;48.140;11.516;2022-09-17T09:27:21;95200.0;;;11.5;62.8
50166;BME280;36071;48.140;11.516;2022-09-17T09:32:22;95200.0;;;11.4;61.9
50166;BME280;36071;48.140;11.516;2022-09-17T09:37:20;95210.0;;;11.3;63.2
50166;BME280;36071;48.140;11.516;2022-09-17T09:42:22;95220.0;;;11.3;63.7
50166;BME280;36071;48.140;11.516;2022-09-17T09:47:23;95220.0;;;11.3;62.2
50166;BME280;36071;48.140;11.516;2022-09-17T09:52:22;95220.0;;;11.4;63.8
50166;BME280;36071;48.140;11.516;2022-09-17T09:57:21;95220.0;;;11.4;63.9
50166;BME280;36071;48.140;11.516;2022-09-17T10:02:20;95220.0;;;11.3;66.1
50166;BME280;36071;48.140;11.516;2022-09-17T10:07:20;95230.0;;;10.9;68.2
50166;BME280;36071;48.140;11.516;2022-09-17T10:12:20;95230.0;;;10.6;69.5
50166;BME280;36071;48.140;11.516;2022-09-17T10:17:20;95230.0;;;10.6;71.7
50166;BME280;36071;48.140;11.516;2022-09-17T10:22:23;95220.0;;;10.4;73.4
50166;BME280;36071;48.140;11.516;2022-09-17T10:27:20;95240.0;;;10.2;74.3
50166;BME280;36071;48.140;11.516;2022-09-17T10:37:30;95240.0;;;10.2;74.6
50166;BME280;36071;48.140;11.516;2022-09-17T10:42:20;95220.0;;;10.3;75.0
50166;BME280;36071;48.140;11.516;2022-09-17T10:47:21;95230.0;;;10.2;75.3
50166;BME280;36071;48.140;11.516;2022-09-17T10:52:22;95230.0;;;10.3;75.8
50166;BME280;36071;48.140;11.516;2022-09-17T10:57:22;95210.0;;;10.4;77.3
50166;BME280;36071;48.140;11.516;2022-09-17T11:02:25;95210.0;;;10.4;77.1
50166;BME280;36071;48.140;11.516;2022-09-17T11:07:24;95220.0;;;10.4;76.5
50166;BME280;36071;48.140;11.516;2022-09-17T11:12:27;95220.0;;;10.6;77.2
50166;BME280;36071;48.140;11.516;2022-09-17T11:17:25;95230.0;;;10.5;75.5
50166;BME280;36071;48.140;11.516;2022-09-17T11:22:21;95220.0;;;10.3;74.7
50166;BME280;36071;48.140;11.516;2022-09-17T11:27:23;95210.0;;;10.4;75.8
50166;BME280;36071;48.140;11.516;2022-09-17T11:32:25;95220.0;;;10.6;76.4
50166;BME280;36071;48.140;11.516;2022-09-17T11:42:21;95220.0;;;10.8;77.9
50166;BME280;36071;48.140;11.516;2022-09-17T11:47:21;95220.0;;;10.9;76.5
50166;BME280;36071;48.140;11.516;2022-09-17T11:52:21;95210.0;;;11.0;75.2
50166;BME280;36071;48.140;11.516;2022-09-17T11:57:21;95210.0;;;11.2;73.7
50166;BME280;36071;48.140;11.516;2022-09-17T12:02:21;95200.0;;;11.4;72.6
50166;BME280;36071;48.140;11.516;2022-09-17T12:07:27;95200.0;;;12.3;69.6
50166;BME280;36071;48.140;11.516;2022-09-17T12:12:21;95180.0;;;12.2;68.7
50166;BME280;36071;48.140;11.516;2022-09-17T12:17:21;95180.0;;;12.1;68.1
50166;BME280;36071;48.140;11.516;2022-09-17T12:22:20;95180.0;;;11.8;68.0
50166;BME280;36071;48.140;11.516;2022-09-17T12:27:27;95180.0;;;11.4;67.7
50166;BME280;36071;48.140;11.516;2022-09-17T12:32:28;95180.0;;;11.4;67.0
50166;BME280;36071;48.140;11.516;2022-09-17T12:37:22;95190.0;;;11.4;67.9
50166;BME280;36071;48.140;11.516;2022-09-17T12:47:28;95180.0;;;11.7;65.8
50166;BME280;36071;48.140;11.516;2022-09-17T12:52:22;95180.0;;;11.8;66.0
50166;BME280;36071;48.140;11.516;2022-09-17T12:57:23;95180.0;;;12.1;66.3
50166;BME280;36071;48.140;11.516;2022-09-17T13:02:21;95180.0;;;12.3;64.9
50166;BME280;36071;48.140;11.516;2022-09-17T13:07:25;95180.0;;;11.6;65.4
50166;BME280;36071;48.140;11.516;2022-09-17T13:12:22;95180.0;;;11.2;69.3
50166;BME280;36071;48.140;11.516;2022-09-17T13:17:22;95170.0;;;11.3;72.4
50166;BME280;36071;48.140;11.516;2022-09-17T13:22:20;95160.0;;;11.2;72.4
50166;BME280;36071;48.140;11.516;2022-09-17T13:27:21;95160.0;;;11.3;73.0
50166;BME280;36071;48.140;11.516;2022-09-17T13:37:20;95160.0;;;11.2;72.0
50166;BME280;36071;48.140;11.516;2022-09-17T13:42:21;95190.0;;;11.3;72.3
50166;BME280;36071;48.140;11.516;2022-09-17T13:47:21;95190.0;;;11.1;73.0
50166;BME280;36071;48.140;11.516;2022-09-17T13:52:36;95170.0;;;11.3;73.2
50166;BME280;36071;48.140;11.516;2022-09-17T13:57:20;95170.0;;;11.6;71.9
50166;BME280;36071;48.140;11.516;2022-09-17T14:02:29;95180.0;;;12.0;71.0
50166;BME280;36071;48.140;11.516;2022-09-17T14:07:35;95170.0;;;12.3;70.7
50166;BME280;36071;48.140;11.516;2022-09-17T14:12:22;95170.0;;;12.5;68.4
50166;BME280;36071;48.140;11.516;2022-09-17T14:22:21;95170.0;;;12.7;62.3
50166;BME280;36071;48.140;11.516;2022-09-17T14:27:25;95160.0;;;12.4;61.2
50166;BME280;36071;48.140;11.516;2022-09-17T14:32:21;95160.0;;;12.2;61.8
50166;BME280;36071;48.140;11.516;2022-09-17T14:37:20;95160.0;;;12.2;62.5
50166;BME280;36071;48.140;11.516;2022-09-17T14:42:21;95170.0;;;12.0;66.7
50166;BME280;36071;48.140;11.516;2022-09-17T14:47:20;95160.0;;;11.9;66.9
50166;BME280;36071;48.140;11.516;2022-09-17T14:52:22;95170.0;;;11.8;66.5
50166;BME280;36071;48.140;11.516;2022-09-17T14:57:22;95180.0;;;11.6;68.7
50166;BME280;36071;48.140;11.516;2022-09-17T15:02:28;95190.0;;;11.5;65.9
50166;BME280;36071;48.140;11.516;2022-09-17T15:07:20;95200.0;;;11.3;65.0
50166;BME280;36071;48.140;11.516;2022-09-17T15:12:21;95210.0;;;11.4;65.4
50166;BME280;36071;48.140;11.516;2022-09-17T15:17:20;95210.0;;;11.2;65.7
50166;BME280;36071;48.140;11.516;2022-09-17T15:22:21;95210.0;;;11.4;66.7
50166;BME280;36071;48.140;11.516;2022-09-17T15:27:22;95210.0;;;11.3;66.2
50166;BME280;36071;48.140;11.516;2022-09-17T15:32:20;95220.0;;;11.1;64.3
50166;BME280;36071;48.140;11.516;2022-09-17T15:37:24;95220.0;;;11.1;65.9
50166;BME280;36071;48.140;11.516;2022-09-17T15:42:21;95230.0;;;10.9;65.6
50166;BME280;36071;48.140;11.516;2022-09-17T15:47:42;95220.0;;;10.9;64.7
50166;BME280;36071;48.140;11.516;2022-09-17T15:52:25;95230.0;;;10.9;65.6
50166;BME280;36071;48.140;11.516;2022-09-17T15:57:20;95230.0;;;10.7;64.7
50166;BME280;36071;48.140;11.516;2022-09-17T16:02:24;95230.0;;;10.8;65.3
50166;BME280;36071;48.140;11.516;2022-09-17T16:07:26;95230.0;;;10.8;64.1
50166;BME280;36071;48.140;11.516;2022-09-17T16:12:20;95220.0;;;10.7;64.5
50166;BME280;36071;48.140;11.516;2022-09-17T16:17:21;95230.0;;;10.5;65.0
50166;BME280;36071;48.140;11.516;2022-09-17T16:22:20;95230.0;;;10.5;65.8
50166;BME280;36071;48.140;11.516;2022-09-17T16:27:21;95240.0;;;10.4;65.3
50166;BME280;36071;48.140;11.516;2022-09-17T16:32:20;95240.0;;;10.5;65.5
50166;BME280;36071;48.140;11.516;2022-09-17T16:37:20;95240.0;;;10.5;64.1
50166;BME280;36071;48.140;11.516;2022-09-17T16:42:20;95250.0;;;10.4;63.7
50166;BME280;36071;48.140;11.516;2022-09-17T16:47:20;95260.0;;;10.4;64.2
50166;BME280;36071;48.140;11.516;2022-09-17T16:52:20;95260.0;;;10.4;65.0
50166;BME280;36071;48.140;11.516;2022-09-17T16:57:20;95260.0;;;10.3;66.0
50166;BME280;36071;48.140;11.516;2022-09-17T17:02:20;95270.0;;;10.3;66.7
50166;BME280;36071;48.140;11.516;2022-09-17T17:07:20;95270.0;;;10.3;67.2
50166;BME280;36071;48.140;11.516;2022-09-17T17:12:20;95270.0;;;10.3;67.3
50166;BME280;36071;48.140;11.516;2022-09-17T17:17:20;95270.0;;;10.0;68.2
50166;BME280;36071;48.140;11.516;2022-09-17T17:22:20;95280.0;;;9.9;69.4
50166;BME280;36071;48.140;11.516;2022-09-17T17:27:20;95300.0;;;10.0;69.4
50166;BME280;36071;48.140;11.516;2022-09-17T17:32:20;95300.0;;;9.9;69.5
50166;BME280;36071;48.140;11.516;2022-09-17T17:37:20;95300.0;;;9.8;68.7
50166;BME280;36071;48.140;11.516;2022-09-17T17:42:20;95300.0;;;9.7;67.7
50166;BME280;36071;48.140;11.516;2022-09-17T17:47:27;95300.0;;;9.5;68.2
50166;BME280;36071;48.140;11.516;2022-09-17T17:52:20;95300.0;;;9.5;68.8
50166;BME280;36071;48.140;11.516;2022-09-17T17:57:20;95310.0;;;9.4;68.5
50166;BME280;36071;48.140;11.516;2022-09-17T18:02:20;95320.0;;;9.5;67.9
50166;BME280;36071;48.140;11.516;2022-09-17T18:07:20;95330.0;;;9.4;68.6
50166;BME280;36071;48.140;11.516;2022-09-17T18:12:20;95340.0;;;9.3;68.9
50166;BME280;36071;48.140;11.516;2022-09-17T18:22:20;95360.0;;;9.2;69.5
50166;BME280;36071;48.140;11.516;2022-09-17T18:27:20;95380.0;;;9.1;70.7
50166;BME280;36071;48.140;11.516;2022-09-17T18:32:20;95380.0;;;9.1;70.8
50166;BME280;36071;48.140;11.516;2022-09-17T18:37:20;95380.0;;;9.1;71.1
50166;BME280;36071;48.140;11.516;2022-09-17T18:42:20;95390.0;;;9.1;71.7
50166;BME280;36071;48.140;11.516;2022-09-17T18:52:20;95390.0;;;9.1;72.5
50166;BME280;36071;48.140;11.516;2022-09-17T18:57:20;95390.0;;;9.0;73.3
50166;BME280;36071;48.140;11.516;2022-09-17T19:02:20;95390.0;;;9.0;75.5
50166;BME280;36071;48.140;11.516;2022-09-17T19:07:20;95390.0;;;8.9;74.4
50166;BME280;36071;48.140;11.516;2022-09-17T19:12:20;95390.0;;;8.8;74.2
50166;BME280;36071;48.140;11.516;2022-09-17T19:17:20;95390.0;;;8.8;74.4
50166;BME280;36071;48.140;11.516;2022-09-17T19:22:20;95380.0;;;8.8;74.5
50166;BME280;36071;48.140;11.516;2022-09-17T19:27:20;95390.0;;;8.8;74.5
50166;BME280;36071;48.140;11.516;2022-09-17T19:32:20;95390.0;;;8.7;74.8
50166;BME280;36071;48.140;11.516;2022-09-17T19:37:20;95380.0;;;8.7;75.2
50166;BME280;36071;48.140;11.516;2022-09-17T19:42:20;95390.0;;;8.7;75.2
50166;BME280;36071;48.140;11.516;2022-09-17T19:47:20;95400.0;;;8.7;75.5
50166;BME280;36071;48.140;11.516;2022-09-17T19:52:20;95380.0;;;8.7;75.8
50166;BME280;36071;48.140;11.516;2022-09-17T19:57:20;95390.0;;;8.6;76.4
50166;BME280;36071;48.140;11.516;2022-09-17T20:02:20;95380.0;;;8.7;76.2
50166;BME280;36071;48.140;11.516;2022-09-17T20:07:20;95370.0;;;8.7;76.8
50166;BME280;36071;48.140;11.516;2022-09-17T20:12:20;95370.0;;;8.8;76.3
50166;BME280;36071;48.140;11.516;2022-09-17T20:17:20;95380.0;;;8.9;76.0
50166;BME280;36071;48.140;11.516;2022-09-17T20:22:20;95400.0;;;8.9;76.0
50166;BME280;36071;48.140;11.516;2022-09-17T20:27:20;95400.0;;;9.0;78.4
50166;BME280;36071;48.140;11.516;2022-09-17T20:32:20;95380.0;;;8.9;80.6
50166;BME280;36071;48.140;11.516;2022-09-17T20:37:20;95390.0;;;8.9;80.7
50166;BME280;36071;48.140;11.516;2022-09-17T20:42:20;95380.0;;;9.1;84.1
50166;BME280;36071;48.140;11.516;2022-09-17T20:47:20;95380.0;;;9.1;81.5
50166;BME280;36071;48.140;11.516;2022-09-17T20:52:20;95380.0;;;9.0;81.2
50166;BME280;36071;48.140;11.516;2022-09-17T20:57:20;95380.0;;;8.9;82.5
50166;BME280;36071;48.140;11.516;2022-09-17T21:02:20;95390.0;;;8.9;82.2
50166;BME280;36071;48.140;11.516;2022-09-17T21:07:20;95400.0;;;8.9;82.9
50166;BME280;36071;48.140;11.516;2022-09-17T21:12:20;95400.0;;;8.8;82.4
50166;BME280;36071;48.140;11.516;2022-09-17T21:17:20;95400.0;;;8.7;82.6
50166;BME280;36071;48.140;11.516;2022-09-17T21:22:20;95410.0;;;8.7;83.3
50166;BME280;36071;48.140;11.516;2022-09-17T21:27:20;95420.0;;;8.6;85.1
50166;BME280;36071;48.140;11.516;2022-09-17T21:47:20;95430.0;;;8.3;82.1
50166;BME280;36071;48.140;11.516;2022-09-17T21:52:20;95410.0;;;8.2;80.5
50166;BME280;36071;48.140;11.516;2022-09-17T21:57:20;95430.0;;;8.2;80.6
50166;BME280;36071;48.140;11.516;2022-09-17T22:02:20;95420.0;;;8.0;82.4
50166;BME280;36071;48.140;11.516;2022-09-17T22:07:20;95400.0;;;8.1;80.9
50166;BME280;36071;48.140;11.516;2022-09-17T22:12:20;95400.0;;;8.1;79.3
50166;BME280;36071;48.140;11.516;2022-09-17T22:17:20;95410.0;;;8.1;78.9
50166;BME280;36071;48.140;11.516;2022-09-17T22:22:20;95410.0;;;8.1;78.5
50166;BME280;36071;48.140;11.516;2022-09-17T22:27:20;95400.0;;;8.0;78.6
50166;BME280;36071;48.140;11.516;2022-09-17T22:32:20;95410.0;;;7.8;79.3
50166;BME280;36071;48.140;11.516;2022-09-17T22:37:20;95410.0;;;7.8;79.8
50166;BME280;36071;48.140;11.516;2022-09-17T22:42:20;95420.0;;;7.9;79.5
50166;BME280;36071;48.140;11.516;2022-09-17T22:52:20;95420.0;;;7.9;81.5
50166;BME280;36071;48.140;11.516;2022-09-17T22:57:20;95430.0;;;7.9;82.4
50166;BME280;36071;48.140;11.516;2022-09-17T23:02:20;95430.0;;;7.8;82.7
50166;BME280;36071;48.140;11.516;2022-09-17T23:07:20;95440.0;;;7.8;82.6
50166;BME280;36071;48.140;11.516;2022-09-17T23:12:20;95440.0;;;7.7;82.4
50166;BME280;36071;48.140;11.516;2022-09-17T23:17:20;95450.0;;;7.7;83.5
50166;BME280;36071;48.140;11.516;2022-09-17T23:22:20;95440.0;;;7.8;81.5
50166;BME280;36071;48.140;11.516;2022-09-17T23:27:20;95380.0;;;7.3;81.8
50166;BME280;36071;48.140;11.516;2022-09-17T23:32:20;95450.0;;;7.8;81.1
50166;BME280;36071;48.140;11.516;2022-09-17T23:37:20;95390.0;;;7.3;82.0
50166;BME280;36071;48.140;11.516;2022-09-17T23:42:20;95450.0;;;7.8;82.2
50166;BME280;36071;48.140;11.516;2022-09-17T23:47:20;95450.0;;;7.7;82.5
